Orsa Maggiore — IAOM — position and weather

sailwx.info

Track history (hours):
 
Tides and Currents Weather Stations Pressure Air Temp Water Temp Dewpoint Dewpoint Depression Visibility Wind Speed Wind Dir Waves Ship Positions

Orsa Maggiore

Last reported at 2018-Jul-11 07:53 UTC. Time now 2018-Jul-20 10:52 UTC.
Position N 39°30' W 000°16'.
Warning: this ship's position is 9 days out of date.

Length 28 m.

Type: Sailing vessel. MMSI: 247938000.

Date/timePositionNaut miles runAvg speedWind from/ knotsBaromVisibWave heightAir tempDewpointWater temp
2018-Jul-11 07:53N 39°30' W 000°16'1 2.6
2018-Jul-11 07:30N 39°31' W 000°15'0 0.1
2018-Jul-11 06:38N 39°31' W 000°15'1 4.3
2018-Jul-11 06:30N 39°30' W 000°15'1 1.3
2018-Jul-11 05:36N 39°31' W 000°14'0 4.7
2018-Jul-11 05:30N 39°30' W 000°14'1 1.3
2018-Jul-11 04:52N 39°31' W 000°14'1 2.3
2018-Jul-11 04:23N 39°30' W 000°14'1 1.6
2018-Jul-11 03:48N 39°31' W 000°14'4 4.8
2018-Jul-11 02:59N 39°27' W 000°15'3 5.0
2018-Jul-11 02:22N 39°30' W 000°15'1 0.9
2018-Jul-11 01:06N 39°31' W 000°14'0 5.1
2018-Jul-11 01:00N 39°31' W 000°14'152 5.4
2018-Jul-09 21:08N 41°07' E 002°19'1 7.8
2018-Jul-09 20:58N 41°08' E 002°20'13 7.3
2018-Jul-09 19:11N 41°19' E 002°29'1 7.6
2018-Jul-09 19:00N 41°20' E 002°30'165 7.2
2018-Jul-08 20:15N 42°38' E 005°45'3 7.6
2018-Jul-08 19:52N 42°40' E 005°49'3 7.6
2018-Jul-08 19:30N 42°41' E 005°52'4 7.6
2018-Jul-08 19:00N 42°43' E 005°57'4 7.6
2018-Jul-08 18:30N 42°45' E 006°01'42 7.9
2018-Jul-08 13:08N 43°13' E 006°45'1 7.8
2018-Jul-08 13:00N 43°14' E 006°46'4 7.8
2018-Jul-08 12:30N 43°17' E 006°49'4 7.7
2018-Jul-08 12:00N 43°19' E 006°53'4 7.7
2018-Jul-08 11:30N 43°22' E 006°56'4 7.8
2018-Jul-08 11:00N 43°25' E 006°60'4 7.8
2018-Jul-08 10:28N 43°27' E 007°05'4 8.2
2018-Jul-08 09:59N 43°28' E 007°10'5 8.3
2018-Jul-08 09:25N 43°29' E 007°17'3 6.1
2018-Jul-08 08:59N 43°30' E 007°20'2 3.1
2018-Jul-08 08:26N 43°31' E 007°22'1 1.4
2018-Jul-08 07:49N 43°31' E 007°23'14 7.3
2018-Jul-08 05:54N 43°37' E 007°41'3 8.1
2018-Jul-08 05:29N 43°39' E 007°45'4 8.1
2018-Jul-08 05:00N 43°40' E 007°50'4 7.9
2018-Jul-08 04:26N 43°42' E 007°55'7 7.8
2018-Jul-08 03:30N 43°45' E 008°05'9 8.1
2018-Jul-08 02:23N 43°46' E 008°17'3 8.2
2018-Jul-08 01:59N 43°47' E 008°22'7 8.1
2018-Jul-08 01:07N 43°49' E 008°31'3 7.9
2018-Jul-08 00:43N 43°51' E 008°35'2 7.8
2018-Jul-08 00:29N 43°51' E 008°37'4 7.9
2018-Jul-07 23:59N 43°52' E 008°42'4 7.8
2018-Jul-07 23:28N 43°54' E 008°47'4 7.7
2018-Jul-07 22:59N 43°55' E 008°52'4 7.7
2018-Jul-07 22:30N 43°55' E 008°57'4 7.5
2018-Jul-07 22:00N 43°56' E 009°03'4 7.7
2018-Jul-07 21:30N 43°57' E 009°08'4 7.8
2018-Jul-07 21:01N 43°57' E 009°13'4 7.8
2018-Jul-07 20:30N 43°57' E 009°19'4 7.7
2018-Jul-07 20:00N 43°57' E 009°24'4 7.5
2018-Jul-07 19:30N 43°58' E 009°29'3 5.8
2018-Jul-07 19:00N 43°58' E 009°33'4 7.3
2018-Jul-07 18:30N 43°59' E 009°38'4 7.3
2018-Jul-07 17:59N 43°60' E 009°43'3 6.6
2018-Jul-07 17:30N 44°01' E 009°48'3 5.7
2018-Jul-07 17:00N 44°01' E 009°52'3 5.9
2018-Jul-07 16:30N 44°04' E 009°51'2 4.0
2018-Jul-07 16:00N 44°05' E 009°50'  
2018-Jul-03 10:38N 44°06' E 009°49'0 0.0
2018-Jul-03 10:30N 44°06' E 009°49'1 2.4
2018-Jul-03 10:00N 44°05' E 009°50'1 1.5
2018-Jul-03 09:31N 44°05' E 009°49'0 0.0
2018-Jul-03 09:01N 44°05' E 009°49'0 0.0
2018-Jul-03 08:31N 44°05' E 009°49'0 0.2
2018-Jul-03 08:01N 44°05' E 009°49'1 0.0
2018-Jul-01 18:45N 44°06' E 009°49'0 0.4
2018-Jul-01 18:30N 44°06' E 009°49'3 5.2
2018-Jul-01 18:00N 44°04' E 009°52'3 7.0
2018-Jul-01 17:30N 44°01' E 009°54'4 7.1
2018-Jul-01 16:59N 43°58' E 009°57'4 7.2
2018-Jul-01 16:28N 43°55' E 010°00'3 7.4
2018-Jul-01 16:00N 43°52' E 010°03'4 7.4
2018-Jul-01 15:30N 43°49' E 010°05'4 7.3
2018-Jul-01 15:00N 43°46' E 010°08'3 7.0
2018-Jul-01 14:30N 43°43' E 010°11'3 6.9
2018-Jul-01 14:00N 43°40' E 010°13'3 6.9
2018-Jul-01 13:30N 43°37' E 010°16'3 6.2
2018-Jul-01 12:59N 43°34' E 010°16'1 2.5
2018-Jul-01 12:30N 43°33' E 010°18'  
Track history (hours):
 
Tides and Currents Weather Stations Pressure Air Temp Water Temp Dewpoint Dewpoint Depression Visibility Wind Speed Wind Dir Waves Ship Positions

Orsa Maggiore

Last reported at 2018-Jul-11 07:53 UTC. Time now 2018-Jul-20 10:52 UTC.
Position N 39°30' W 000°16'.
Warning: this ship's position is 9 days out of date.

Length 28 m.

Type: Sailing vessel. MMSI: 247938000.

Date/timePositionNaut miles runAvg speedWind from/ knotsBaromVisibWave heightAir tempDewpointWater temp
2018-Jul-11 07:53N 39°30' W 000°16'1 2.6
2018-Jul-11 07:30N 39°31' W 000°15'0 0.1
2018-Jul-11 06:38N 39°31' W 000°15'1 4.3
2018-Jul-11 06:30N 39°30' W 000°15'1 1.3
2018-Jul-11 05:36N 39°31' W 000°14'0 4.7
2018-Jul-11 05:30N 39°30' W 000°14'1 1.3
2018-Jul-11 04:52N 39°31' W 000°14'1 2.3
2018-Jul-11 04:23N 39°30' W 000°14'1 1.6
2018-Jul-11 03:48N 39°31' W 000°14'4 4.8
2018-Jul-11 02:59N 39°27' W 000°15'3 5.0
2018-Jul-11 02:22N 39°30' W 000°15'1 0.9
2018-Jul-11 01:06N 39°31' W 000°14'0 5.1
2018-Jul-11 01:00N 39°31' W 000°14'152 5.4
2018-Jul-09 21:08N 41°07' E 002°19'1 7.8
2018-Jul-09 20:58N 41°08' E 002°20'13 7.3
2018-Jul-09 19:11N 41°19' E 002°29'1 7.6
2018-Jul-09 19:00N 41°20' E 002°30'165 7.2
2018-Jul-08 20:15N 42°38' E 005°45'3 7.6
2018-Jul-08 19:52N 42°40' E 005°49'3 7.6
2018-Jul-08 19:30N 42°41' E 005°52'4 7.6
2018-Jul-08 19:00N 42°43' E 005°57'4 7.6
2018-Jul-08 18:30N 42°45' E 006°01'42 7.9
2018-Jul-08 13:08N 43°13' E 006°45'1 7.8
2018-Jul-08 13:00N 43°14' E 006°46'4 7.8
2018-Jul-08 12:30N 43°17' E 006°49'4 7.7
2018-Jul-08 12:00N 43°19' E 006°53'4 7.7
2018-Jul-08 11:30N 43°22' E 006°56'4 7.8
2018-Jul-08 11:00N 43°25' E 006°60'4 7.8
2018-Jul-08 10:28N 43°27' E 007°05'4 8.2
2018-Jul-08 09:59N 43°28' E 007°10'5 8.3
2018-Jul-08 09:25N 43°29' E 007°17'3 6.1
2018-Jul-08 08:59N 43°30' E 007°20'2 3.1
2018-Jul-08 08:26N 43°31' E 007°22'1 1.4
2018-Jul-08 07:49N 43°31' E 007°23'14 7.3
2018-Jul-08 05:54N 43°37' E 007°41'3 8.1
2018-Jul-08 05:29N 43°39' E 007°45'4 8.1
2018-Jul-08 05:00N 43°40' E 007°50'4 7.9
2018-Jul-08 04:26N 43°42' E 007°55'7 7.8
2018-Jul-08 03:30N 43°45' E 008°05'9 8.1
2018-Jul-08 02:23N 43°46' E 008°17'3 8.2
2018-Jul-08 01:59N 43°47' E 008°22'7 8.1
2018-Jul-08 01:07N 43°49' E 008°31'3 7.9
2018-Jul-08 00:43N 43°51' E 008°35'2 7.8
2018-Jul-08 00:29N 43°51' E 008°37'4 7.9
2018-Jul-07 23:59N 43°52' E 008°42'4 7.8
2018-Jul-07 23:28N 43°54' E 008°47'4 7.7
2018-Jul-07 22:59N 43°55' E 008°52'4 7.7
2018-Jul-07 22:30N 43°55' E 008°57'4 7.5
2018-Jul-07 22:00N 43°56' E 009°03'4 7.7
2018-Jul-07 21:30N 43°57' E 009°08'4 7.8
2018-Jul-07 21:01N 43°57' E 009°13'4 7.8
2018-Jul-07 20:30N 43°57' E 009°19'4 7.7
2018-Jul-07 20:00N 43°57' E 009°24'4 7.5
2018-Jul-07 19:30N 43°58' E 009°29'3 5.8
2018-Jul-07 19:00N 43°58' E 009°33'4 7.3
2018-Jul-07 18:30N 43°59' E 009°38'4 7.3
2018-Jul-07 17:59N 43°60' E 009°43'3 6.6
2018-Jul-07 17:30N 44°01' E 009°48'3 5.7
2018-Jul-07 17:00N 44°01' E 009°52'3 5.9
2018-Jul-07 16:30N 44°04' E 009°51'2 4.0
2018-Jul-07 16:00N 44°05' E 009°50'  
2018-Jul-03 10:38N 44°06' E 009°49'0 0.0
2018-Jul-03 10:30N 44°06' E 009°49'1 2.4
2018-Jul-03 10:00N 44°05' E 009°50'1 1.5
2018-Jul-03 09:31N 44°05' E 009°49'0 0.0
2018-Jul-03 09:01N 44°05' E 009°49'0 0.0
2018-Jul-03 08:31N 44°05' E 009°49'0 0.2
2018-Jul-03 08:01N 44°05' E 009°49'1 0.0
2018-Jul-01 18:45N 44°06' E 009°49'0 0.4
2018-Jul-01 18:30N 44°06' E 009°49'3 5.2
2018-Jul-01 18:00N 44°04' E 009°52'3 7.0
2018-Jul-01 17:30N 44°01' E 009°54'4 7.1
2018-Jul-01 16:59N 43°58' E 009°57'4 7.2
2018-Jul-01 16:28N 43°55' E 010°00'3 7.4
2018-Jul-01 16:00N 43°52' E 010°03'4 7.4
2018-Jul-01 15:30N 43°49' E 010°05'4 7.3
2018-Jul-01 15:00N 43°46' E 010°08'3 7.0
2018-Jul-01 14:30N 43°43' E 010°11'3 6.9
2018-Jul-01 14:00N 43°40' E 010°13'3 6.9
2018-Jul-01 13:30N 43°37' E 010°16'3 6.2
2018-Jul-01 12:59N 43°34' E 010°16'1 2.5
2018-Jul-01 12:30N 43°33' E 010°18'  

Dump ship's entire track history